Time;durP1;ratioP1;P1;durP2;ratioP2;P2;SDS_P1;SDS_P2;PMS_P1;PMS_P2;Temp;Humidity;BMP_temperature;BMP_pressure;BME280_temperature;BME280_humidity;BME280_pressure;Samples;Min_cycle;Max_cycle;Signal;HPM_P1;HPM_P2
2023/03/04 00:02:12;;;;;;;34.03;13.57;;;-0.90;99.90;;;;;;5084922;28;20021;-83
2023/03/04 00:04:38;;;;;;;40.42;14.15;;;-0.90;99.90;;;;;;5052104;28;20036;-82
2023/03/04 00:07:03;;;;;;;35.83;13.85;;;-0.90;99.90;;;;;;5051006;28;20041;-82
2023/03/04 00:09:47;;;;;;;40.20;14.27;;;-0.90;99.90;;;;;;5034683;28;20396;-82
2023/03/04 00:12:13;;;;;;;42.00;15.07;;;-0.90;99.90;;;;;;5067661;28;20024;-82
2023/03/04 00:14:39;;;;;;;43.10;15.50;;;-0.90;99.90;;;;;;5051001;28;20037;-82
2023/03/04 00:17:05;;;;;;;41.72;14.50;;;-1.00;99.90;;;;;;5051238;28;20035;-83
2023/03/04 00:19:31;;;;;;;41.20;15.60;;;-1.00;99.90;;;;;;5047904;28;20021;-82
2023/03/04 00:21:57;;;;;;;43.17;14.68;;;-1.00;99.90;;;;;;5049869;28;20476;-82
2023/03/04 00:24:23;;;;;;;36.63;13.23;;;-1.10;99.90;;;;;;5051165;28;20087;-82
2023/03/04 00:26:50;;;;;;;40.38;14.90;;;-1.00;99.90;;;;;;5052324;28;20083;-82
2023/03/04 00:29:15;;;;;;;37.67;13.98;;;-1.00;99.90;;;;;;5049524;28;20021;-82
2023/03/04 00:31:41;;;;;;;35.75;14.32;;;-0.90;99.90;;;;;;5046080;28;20126;-83
2023/03/04 00:34:06;;;;;;;36.85;13.73;;;-1.00;99.90;;;;;;5034143;28;20063;-83
2023/03/04 00:36:32;;;;;;;41.72;15.48;;;-1.00;99.90;;;;;;5050831;28;20064;-83
2023/03/04 00:38:58;;;;;;;44.65;14.95;;;-1.00;99.90;;;;;;5034270;28;20028;-82
2023/03/04 00:41:24;;;;;;;45.25;15.20;;;-1.00;99.90;;;;;;5050642;28;20059;-83
2023/03/04 00:43:50;;;;;;;42.97;16.08;;;-1.00;99.90;;;;;;5051898;28;20123;-83
2023/03/04 00:46:16;;;;;;;40.75;16.15;;;-1.10;99.90;;;;;;5031899;28;20036;-82
2023/03/04 00:48:42;;;;;;;37.28;14.90;;;-1.10;99.90;;;;;;5050782;28;20041;-82
2023/03/04 00:51:08;;;;;;;40.88;16.00;;;-1.10;99.90;;;;;;5033735;28;20025;-82
2023/03/04 00:53:33;;;;;;;41.88;15.32;;;-1.10;99.90;;;;;;5050724;28;20785;-82
2023/03/04 00:55:59;;;;;;;41.30;14.82;;;-1.20;99.90;;;;;;5051656;28;20033;-83
2023/03/04 00:58:25;;;;;;;47.05;16.98;;;-1.20;99.90;;;;;;5066978;28;20031;-83
2023/03/04 01:01:06;;;;;;;47.10;15.98;;;-1.20;99.90;;;;;;5049853;28;20032;-83
2023/03/04 01:03:32;;;;;;;42.55;16.25;;;-1.30;99.90;;;;;;5033682;28;20033;-83
2023/03/04 01:05:58;;;;;;;41.72;16.52;;;-1.30;99.90;;;;;;5054351;28;20044;-83
2023/03/04 01:08:24;;;;;;;43.42;16.52;;;-1.30;99.90;;;;;;5037647;28;20029;-83
2023/03/04 01:10:52;;;;;;;43.35;15.88;;;-1.30;99.90;;;;;;5054301;28;20083;-83
2023/03/04 01:13:18;;;;;;;45.85;16.80;;;-1.30;99.90;;;;;;5050722;28;20029;-83
2023/03/04 01:15:43;;;;;;;42.08;15.20;;;-1.30;99.90;;;;;;5054185;28;20808;-83
2023/03/04 01:18:09;;;;;;;41.53;15.70;;;-1.30;99.90;;;;;;5054177;28;20111;-83
2023/03/04 01:20:35;;;;;;;42.30;16.45;;;-1.20;99.90;;;;;;5034429;28;20079;-82
2023/03/04 01:23:01;;;;;;;51.72;18.02;;;-1.30;99.90;;;;;;5084904;28;20028;-84
2023/03/04 01:25:27;;;;;;;46.63;17.02;;;-1.20;99.90;;;;;;5051276;28;20025;-83
2023/03/04 01:27:53;;;;;;;47.70;17.65;;;-1.30;99.90;;;;;;5053413;28;20035;-82
2023/03/04 01:30:18;;;;;;;43.40;15.93;;;-1.30;99.90;;;;;;5053792;28;20028;-83
2023/03/04 01:32:44;;;;;;;47.60;17.08;;;-1.30;99.90;;;;;;5037396;28;20032;-83
2023/03/04 01:35:10;;;;;;;52.70;17.80;;;-1.20;99.90;;;;;;5053947;28;20037;-83
2023/03/04 01:37:36;;;;;;;50.05;17.90;;;-1.20;99.90;;;;;;5036974;28;20611;-83
2023/03/04 01:40:04;;;;;;;52.83;18.77;;;-1.20;99.90;;;;;;5034409;28;20033;-83
2023/03/04 01:42:45;;;;;;;48.35;17.35;;;-1.10;99.90;;;;;;5053991;28;20024;-83
2023/03/04 01:45:14;;;;;;;63.55;19.55;;;-1.20;99.90;;;;;;5053895;28;20115;-82
2023/03/04 01:47:47;;;;;;;52.47;19.33;;;-1.20;99.90;;;;;;5037281;28;20033;-83
2023/03/04 01:50:26;;;;;;;58.15;20.30;;;-1.20;99.90;;;;;;5037164;28;20025;-83
2023/03/04 01:52:54;;;;;;;57.70;20.20;;;-1.20;99.90;;;;;;5037451;28;20029;-83
2023/03/04 01:55:22;;;;;;;61.70;20.55;;;-1.30;99.90;;;;;;5053817;28;20040;-83
2023/03/04 01:57:48;;;;;;;56.83;20.08;;;-1.30;99.90;;;;;;5033799;28;20037;-83
2023/03/04 02:00:18;;;;;;;63.30;21.25;;;-1.40;99.90;;;;;;5052077;28;20044;-83
2023/03/04 02:02:49;;;;;;;55.40;19.60;;;-1.40;99.90;;;;;;5053364;28;20017;-83
2023/03/04 02:05:15;;;;;;;;;;;-1.50;99.90;;;;;;5055124;28;20083;-83
2023/03/04 02:07:59;;;;;;;60.85;20.30;;;-1.50;99.90;;;;;;5053198;28;19908;-83
2023/03/04 02:10:25;;;;;;;60.55;21.25;;;-1.50;99.90;;;;;;5070160;28;20036;-83
2023/03/04 02:12:51;;;;;;;58.13;22.27;;;-1.60;99.90;;;;;;5053948;28;20083;-82
2023/03/04 02:15:17;;;;;;;66.78;22.60;;;-1.60;99.90;;;;;;5055194;28;20139;-83
2023/03/04 02:17:43;;;;;;;63.47;22.33;;;-1.60;99.90;;;;;;5036022;28;20622;-83
2023/03/04 02:20:42;;;;;;;68.85;23.63;;;-1.70;99.90;;;;;;5036173;28;20769;-83
2023/03/04 02:23:13;;;;;;;75.90;24.55;;;-1.70;99.90;;;;;;5052327;28;20025;-83
2023/03/04 02:25:58;;;;;;;67.05;23.98;;;-1.70;99.90;;;;;;5052794;28;20037;-82
2023/03/04 02:28:24;;;;;;;69.32;23.83;;;-1.70;99.90;;;;;;5053160;28;20705;-83
2023/03/04 02:30:50;;;;;;;71.97;23.77;;;-1.60;99.90;;;;;;5053076;28;20029;-83
2023/03/04 02:33:17;;;;;;;69.43;24.10;;;-1.70;99.90;;;;;;5069977;28;20044;-83
2023/03/04 02:35:43;;;;;;;80.05;26.00;;;-1.80;99.90;;;;;;5052861;28;20480;-83
2023/03/04 02:38:10;;;;;;;68.85;24.58;;;-1.80;99.90;;;;;;5069908;28;20037;-83
2023/03/04 02:40:38;;;;;;;72.20;25.20;;;-1.80;99.90;;;;;;5036386;28;20025;-83
2023/03/04 02:43:04;;;;;;;65.35;23.92;;;-1.80;99.90;;;;;;5054260;28;20025;-83
2023/03/04 02:45:33;;;;;;;72.47;23.88;;;-1.90;99.90;;;;;;5032971;28;20041;-83
2023/03/04 02:47:59;;;;;;;78.65;26.02;;;-1.90;99.90;;;;;;5052802;28;20036;-83
2023/03/04 02:50:28;;;;;;;75.88;24.77;;;-1.90;99.90;;;;;;5052293;28;20047;-83
2023/03/04 02:52:54;;;;;;;78.97;26.45;;;-2.00;99.90;;;;;;5036421;28;20037;-83
2023/03/04 02:55:19;;;;;;;77.05;27.27;;;-2.00;99.90;;;;;;5051874;28;20623;-83
2023/03/04 02:57:45;;;;;;;90.95;26.13;;;-2.00;99.90;;;;;;5035735;28;20485;-83
2023/03/04 03:00:11;;;;;;;67.78;26.58;;;-2.00;99.90;;;;;;5052972;28;20024;-83
2023/03/04 03:03:19;;;;;;;87.22;26.58;;;-2.00;99.90;;;;;;5036080;28;20120;-83
2023/03/04 03:05:45;;;;;;;80.03;25.55;;;-2.00;99.90;;;;;;5066718;28;20063;-83
2023/03/04 03:08:11;;;;;;;81.78;26.30;;;-2.00;99.90;;;;;;5052996;28;20070;-83
2023/03/04 03:10:38;;;;;;;76.30;25.75;;;-2.00;99.90;;;;;;5035887;28;20025;-85
2023/03/04 03:13:05;;;;;;;79.85;26.30;;;-2.00;99.90;;;;;;5036865;28;20049;-86
2023/03/04 03:15:31;;;;;;;87.85;28.27;;;-2.10;99.90;;;;;;5036488;28;20156;-85
2023/03/04 03:17:57;;;;;;;85.70;26.70;;;-2.10;99.90;;;;;;5036335;28;20445;-86
2023/03/04 03:20:23;;;;;;;76.70;25.33;;;-2.10;99.90;;;;;;5053013;28;20072;-86
2023/03/04 03:22:49;;;;;;;81.38;26.33;;;-2.20;99.90;;;;;;5052714;28;20507;-86
2023/03/04 03:25:42;;;;;;;90.10;28.23;;;-2.20;99.90;;;;;;5036287;28;20029;-86
2023/03/04 03:28:11;;;;;;;76.80;25.52;;;-2.20;99.90;;;;;;5057668;28;20067;-86
2023/03/04 03:34:03;;;;;;;67.35;24.20;;;-2.30;99.90;;;;;;5053925;28;20056;-85
2023/03/04 03:36:29;;;;;;;79.05;25.73;;;-2.30;99.90;;;;;;5052707;28;20110;-85
2023/03/04 03:38:54;;;;;;;89.80;28.95;;;-2.30;99.90;;;;;;5052550;28;20029;-85
2023/03/04 03:41:20;;;;;;;75.25;27.85;;;-2.30;99.90;;;;;;5052887;28;20538;-86
2023/03/04 03:43:45;;;;;;;95.78;29.15;;;-2.20;99.90;;;;;;5052598;28;20047;-85
2023/03/04 03:46:11;;;;;;;92.93;30.23;;;-2.10;99.90;;;;;;5085968;28;20056;-85
2023/03/04 03:48:37;;;;;;;88.28;27.85;;;-2.10;99.90;;;;;;5053822;28;20064;-85
2023/03/04 03:51:02;;;;;;;86.03;28.67;;;-2.10;99.90;;;;;;5069094;28;20044;-85
2023/03/04 03:53:28;;;;;;;94.40;29.73;;;-2.00;99.90;;;;;;5035722;28;20464;-86
2023/03/04 03:55:54;;;;;;;97.95;29.67;;;-2.00;99.90;;;;;;5053310;28;20031;-85
2023/03/04 03:58:19;;;;;;;84.75;29.15;;;-2.00;99.90;;;;;;5052411;28;20115;-85
2023/03/04 04:00:45;;;;;;;94.03;29.65;;;-2.00;99.90;;;;;;5053772;28;20104;-85
2023/03/04 04:03:14;;;;;;;86.25;31.38;;;-1.90;99.90;;;;;;5052106;28;20074;-86
2023/03/04 04:05:40;;;;;;;89.97;30.17;;;-1.90;99.90;;;;;;5053558;28;20029;-85
2023/03/04 04:08:05;;;;;;;94.32;31.42;;;-1.90;99.90;;;;;;5052210;28;20032;-86
2023/03/04 04:10:31;;;;;;;104.43;33.88;;;-1.90;99.90;;;;;;5053639;28;20032;-85
2023/03/04 04:12:57;;;;;;;97.63;32.80;;;-1.90;99.90;;;;;;5051866;28;20021;-85
2023/03/04 04:15:22;;;;;;;94.45;31.77;;;-1.90;99.90;;;;;;5085517;28;20046;-86
2023/03/04 04:17:48;;;;;;;95.20;30.52;;;-1.90;99.90;;;;;;5035142;28;20219;-85
2023/03/04 04:20:14;;;;;;;97.80;32.00;;;-1.80;99.90;;;;;;5067996;28;20029;-85
2023/03/04 04:22:39;;;;;;;101.05;33.38;;;-1.80;99.90;;;;;;5051391;28;20039;-86
2023/03/04 04:25:07;;;;;;;106.95;34.72;;;-1.80;99.90;;;;;;5085212;28;20538;-86
2023/03/04 04:27:33;;;;;;;101.47;31.90;;;-1.80;99.90;;;;;;5068130;28;20033;-86
2023/03/04 04:29:58;;;;;;;101.53;33.28;;;-1.80;99.90;;;;;;5051735;28;20036;-86
2023/03/04 04:32:24;;;;;;;96.25;32.78;;;-1.80;99.90;;;;;;5035571;28;20128;-86
2023/03/04 04:34:50;;;;;;;101.90;30.55;;;-1.80;99.90;;;;;;5051864;28;20055;-85
2023/03/04 04:37:15;;;;;;;99.90;32.00;;;-1.70;99.90;;;;;;5035078;28;20493;-86
2023/03/04 04:39:41;;;;;;;87.68;30.38;;;-1.70;99.90;;;;;;5051752;28;20021;-85
2023/03/04 04:42:09;;;;;;;88.78;30.08;;;-1.70;99.90;;;;;;5051150;28;20028;-84
2023/03/04 04:44:37;;;;;;;100.53;31.23;;;-1.60;99.90;;;;;;5032080;28;20484;-85
2023/03/04 04:47:05;;;;;;;83.72;29.92;;;-1.60;99.90;;;;;;5051121;28;20033;-86
2023/03/04 04:49:31;;;;;;;96.85;31.42;;;-1.60;99.90;;;;;;5068779;28;20107;-85
2023/03/04 04:51:57;;;;;;;87.93;30.25;;;-1.50;99.90;;;;;;5035157;28;20059;-85
2023/03/04 04:54:23;;;;;;;89.80;28.75;;;-1.50;99.90;;;;;;5053059;28;20060;-85
2023/03/04 04:56:49;;;;;;;82.88;28.75;;;-1.50;99.90;;;;;;5052731;28;20041;-86
2023/03/04 04:59:15;;;;;;;83.28;30.30;;;-1.50;99.90;;;;;;5051947;28;20104;-86
2023/03/04 05:01:40;;;;;;;88.30;31.52;;;-1.50;99.90;;;;;;5052070;28;20048;-86
2023/03/04 05:04:06;;;;;;;87.88;32.08;;;-1.50;99.90;;;;;;5052068;28;20025;-86
2023/03/04 05:06:32;;;;;;;77.88;30.05;;;-1.50;99.90;;;;;;5034765;28;20033;-86
2023/03/04 05:08:57;;;;;;;78.43;29.15;;;-1.40;99.90;;;;;;5035108;28;20500;-86
2023/03/04 05:11:23;;;;;;;93.38;32.28;;;-1.40;99.90;;;;;;5035131;28;20021;-87
2023/03/04 05:13:49;;;;;;;88.93;30.77;;;-1.40;99.90;;;;;;5052895;28;20033;-85
2023/03/04 05:16:16;;;;;;;91.65;31.20;;;-1.40;99.90;;;;;;5034855;28;20067;-86
2023/03/04 05:18:42;;;;;;;94.07;30.45;;;-1.40;99.90;;;;;;5051348;28;20112;-86
2023/03/04 05:21:07;;;;;;;91.45;33.22;;;-1.40;99.90;;;;;;5051870;28;20056;-86
2023/03/04 05:23:36;;;;;;;86.40;29.05;;;-1.40;99.90;;;;;;5051703;28;20028;-86
2023/03/04 05:26:04;;;;;;;96.85;33.42;;;-1.50;99.90;;;;;;5051391;28;20478;-86
2023/03/04 05:28:30;;;;;;;91.88;32.55;;;-1.50;99.90;;;;;;5051140;28;20029;-85
2023/03/04 05:30:56;;;;;;;89.25;32.55;;;-1.50;99.90;;;;;;5035016;28;20025;-86
2023/03/04 05:33:21;;;;;;;93.88;32.88;;;-1.50;99.90;;;;;;5051592;28;20074;-86
2023/03/04 05:35:48;;;;;;;90.65;33.72;;;-1.50;99.90;;;;;;5031561;28;20036;-86
2023/03/04 05:38:18;;;;;;;80.78;32.45;;;-1.40;99.90;;;;;;5048703;28;20484;-86
2023/03/04 05:40:56;;;;;;;91.10;33.92;;;-1.40;99.90;;;;;;5051184;28;20554;-86
2023/03/04 05:43:22;;;;;;;88.32;32.40;;;-1.40;99.90;;;;;;5033128;28;20030;-86
2023/03/04 05:45:48;;;;;;;84.28;31.23;;;-1.40;99.90;;;;;;5034823;28;20560;-86
2023/03/04 05:48:14;;;;;;;93.38;35.55;;;-1.30;99.90;;;;;;5051287;28;20480;-86
2023/03/04 05:50:56;;;;;;;90.20;34.22;;;-1.30;99.90;;;;;;5052584;28;20079;-86
2023/03/04 05:53:23;;;;;;;88.78;34.53;;;-1.30;99.90;;;;;;5037653;28;20028;-86
2023/03/04 05:55:49;;;;;;;97.53;32.92;;;-1.30;99.90;;;;;;5038611;28;20024;-86
2023/03/04 05:58:16;;;;;;;81.03;30.65;;;-1.30;99.90;;;;;;5054935;28;20384;-86
2023/03/04 06:00:54;;;;;;;90.00;33.40;;;-1.30;99.90;;;;;;5038161;28;20087;-86
2023/03/04 06:03:21;;;;;;;92.63;32.58;;;-1.20;99.90;;;;;;5030699;28;20033;-92
2023/03/04 06:09:35;;;;;;;96.75;34.15;;;-1.10;99.90;;;;;;5058316;28;20051;-92
2023/03/04 06:12:01;;;;;;;87.30;34.22;;;-1.10;99.90;;;;;;5058144;28;20033;-91
2023/03/04 06:14:26;;;;;;;91.97;33.42;;;-1.10;99.90;;;;;;5040312;28;20547;-91
2023/03/04 06:16:52;;;;;;;86.35;31.63;;;-1.10;99.90;;;;;;5040429;28;20074;-92
2023/03/04 06:19:18;;;;;;;82.57;33.45;;;-1.10;99.90;;;;;;5040456;28;20443;-91
2023/03/04 06:21:43;;;;;;;85.97;34.33;;;-1.20;99.90;;;;;;5057077;28;20056;-92
2023/03/04 06:24:09;;;;;;;87.43;33.17;;;-1.10;99.90;;;;;;5056648;28;20055;-92
2023/03/04 06:26:50;;;;;;;86.18;33.47;;;-1.10;99.90;;;;;;5056499;28;20056;-92
2023/03/04 06:29:16;;;;;;;83.85;31.75;;;-1.10;99.90;;;;;;5056764;28;20021;-92
2023/03/04 06:31:41;;;;;;;83.97;33.17;;;-1.00;99.90;;;;;;5040447;28;20124;-92
2023/03/04 06:34:08;;;;;;;74.97;32.00;;;-1.00;99.90;;;;;;5055884;28;20032;-92
2023/03/04 06:36:34;;;;;;;78.32;31.80;;;-1.00;99.90;;;;;;5057144;28;20033;-92
2023/03/04 06:39:03;;;;;;;84.38;32.90;;;-1.00;99.90;;;;;;5039884;28;20480;-92
2023/03/04 06:41:35;;;;;;;85.78;34.65;;;-1.00;99.90;;;;;;5039436;28;20424;-92
2023/03/04 06:44:00;;;;;;;78.68;32.90;;;-0.90;99.90;;;;;;5055886;28;20107;-92
2023/03/04 06:46:26;;;;;;;77.45;33.65;;;-0.90;99.90;;;;;;5045011;28;20071;-92
2023/03/04 06:48:52;;;;;;;79.00;33.58;;;-0.80;99.90;;;;;;5034219;28;20469;-92
2023/03/04 06:51:18;;;;;;;78.90;32.58;;;-0.80;99.90;;;;;;5037370;28;20033;-93
2023/03/04 06:53:44;;;;;;;72.78;31.02;;;-0.70;99.90;;;;;;5044951;28;20093;-92
2023/03/04 06:56:12;;;;;;;81.43;33.05;;;-0.70;99.90;;;;;;5066702;28;20041;-92
2023/03/04 06:58:38;;;;;;;86.97;34.05;;;-0.70;99.90;;;;;;5047767;28;20029;-85
2023/03/04 07:01:16;;;;;;;81.57;31.33;;;-0.70;99.90;;;;;;5049803;28;20025;-86
2023/03/04 07:03:43;;;;;;;78.22;31.75;;;-0.60;99.90;;;;;;5033577;28;20116;-86
2023/03/04 07:06:11;;;;;;;75.38;31.02;;;-0.60;99.90;;;;;;5077125;28;20029;-86
2023/03/04 07:08:37;;;;;;;78.40;31.90;;;-0.60;99.90;;;;;;5045202;28;20108;-86
2023/03/04 07:11:03;;;;;;;76.60;32.25;;;-0.60;99.90;;;;;;5033076;28;20085;-86
2023/03/04 07:13:29;;;;;;;70.30;31.63;;;-0.50;99.90;;;;;;5051102;28;20115;-86
2023/03/04 07:15:55;;;;;;;87.97;34.25;;;-0.40;99.90;;;;;;5034164;28;20036;-86
2023/03/04 07:18:20;;;;;;;73.32;31.80;;;-0.30;99.90;;;;;;5052236;28;20086;-85
2023/03/04 07:20:50;;;;;;;72.05;30.50;;;-0.30;99.90;;;;;;5037918;28;20021;-85
2023/03/04 07:23:16;;;;;;;68.75;30.95;;;-0.30;99.90;;;;;;5037442;28;20023;-86
2023/03/04 07:25:41;;;;;;;77.40;33.33;;;-0.20;99.90;;;;;;5035904;28;20035;-86
2023/03/04 07:28:07;;;;;;;67.38;30.85;;;-0.10;99.90;;;;;;5052829;28;20033;-86
2023/03/04 07:30:32;;;;;;;82.00;33.72;;;-0.10;99.90;;;;;;5036134;28;20396;-86
2023/03/04 07:32:58;;;;;;;75.68;31.75;;;-0.10;99.90;;;;;;5052616;28;20033;-86
2023/03/04 07:35:24;;;;;;;66.82;28.73;;;-0.10;99.90;;;;;;5053583;28;20024;-85
2023/03/04 07:37:49;;;;;;;83.97;34.92;;;-0.10;99.90;;;;;;5033197;28;20037;-86
2023/03/04 07:40:15;;;;;;;71.32;31.42;;;-0.10;99.90;;;;;;5058225;28;20025;-86
2023/03/04 07:42:41;;;;;;;74.55;29.98;;;-0.10;99.90;;;;;;5068657;28;20052;-86
2023/03/04 07:45:10;;;;;;;71.05;30.95;;;0.00;99.90;;;;;;5036724;28;20021;-86
2023/03/04 07:47:49;;;;;;;74.28;31.77;;;-0.10;99.90;;;;;;5035507;28;20029;-85
2023/03/04 07:50:15;;;;;;;65.80;28.48;;;-0.10;99.90;;;;;;5052320;28;20102;-86
2023/03/04 07:52:44;;;;;;;71.25;30.35;;;-0.10;99.90;;;;;;5035948;28;20025;-86
2023/03/04 07:55:12;;;;;;;69.47;29.50;;;-0.10;99.90;;;;;;5035240;28;20437;-85
2023/03/04 07:57:42;;;;;;;63.72;29.73;;;-0.10;99.90;;;;;;5036397;28;20036;-85
2023/03/04 08:00:40;;;;;;;63.13;30.20;;;-0.10;99.90;;;;;;5039596;28;20703;-85
2023/03/04 08:03:05;;;;;;;68.75;30.25;;;0.00;99.90;;;;;;5051729;28;20033;-86
2023/03/04 08:05:31;;;;;;;64.78;29.50;;;0.10;99.90;;;;;;5068236;28;20013;-86
2023/03/04 08:07:57;;;;;;;61.75;27.95;;;0.20;99.90;;;;;;5051815;28;20086;-85
2023/03/04 08:10:22;;;;;;;64.60;27.58;;;0.30;99.90;;;;;;5052654;28;20028;-86
2023/03/04 08:12:48;;;;;;;57.05;27.60;;;0.30;99.90;;;;;;5053190;28;20021;-85
2023/03/04 08:15:14;;;;;;;69.05;28.63;;;0.20;99.90;;;;;;5034362;28;20132;-85
2023/03/04 08:17:39;;;;;;;61.67;26.88;;;0.20;99.90;;;;;;5051912;28;20047;-85
2023/03/04 08:20:05;;;;;;;58.60;29.13;;;0.20;99.90;;;;;;5051664;28;20029;-86
2023/03/04 08:23:09;;;;;;;73.30;30.20;;;0.20;99.90;;;;;;5051885;28;20063;-86
2023/03/04 08:25:38;;;;;;;73.82;33.47;;;0.20;99.90;;;;;;5034697;28;20025;-85
2023/03/04 08:28:04;;;;;;;68.53;30.77;;;0.20;99.90;;;;;;5048193;28;20386;-85
2023/03/04 08:30:30;;;;;;;70.78;31.27;;;0.20;99.90;;;;;;5035698;28;20025;-86
2023/03/04 08:32:55;;;;;;;65.60;29.13;;;0.20;99.90;;;;;;5051943;28;20021;-86
2023/03/04 08:35:21;;;;;;;64.72;29.20;;;0.20;99.90;;;;;;5034945;28;20039;-85
2023/03/04 08:37:47;;;;;;;66.78;30.13;;;0.30;99.90;;;;;;5034839;28;20025;-85
2023/03/04 08:40:13;;;;;;;75.35;29.98;;;0.20;99.90;;;;;;5034632;28;20017;-86
2023/03/04 08:42:40;;;;;;;75.47;32.47;;;0.10;99.90;;;;;;5035085;28;20032;-85
2023/03/04 08:45:06;;;;;;;74.03;31.65;;;0.20;99.90;;;;;;5034579;28;20116;-85
2023/03/04 08:47:32;;;;;;;85.32;33.92;;;0.20;99.90;;;;;;5034778;28;20041;-85
2023/03/04 08:49:58;;;;;;;106.45;43.40;;;0.30;99.90;;;;;;5033109;28;20639;-86
2023/03/04 08:52:24;;;;;;;72.25;33.42;;;0.30;99.90;;;;;;5067849;28;20484;-85
2023/03/04 08:54:49;;;;;;;70.25;31.88;;;0.30;99.90;;;;;;5034152;28;20032;-86
2023/03/04 08:57:15;;;;;;;74.03;31.90;;;0.40;99.90;;;;;;5050965;28;20043;-85
2023/03/04 08:59:41;;;;;;;63.30;29.15;;;0.40;99.90;;;;;;5050879;28;20029;-86
2023/03/04 09:02:07;;;;;;;69.63;30.25;;;0.40;99.90;;;;;;5051067;28;20025;-85
2023/03/04 09:04:32;;;;;;;69.95;31.52;;;0.50;99.90;;;;;;5050697;28;20112;-85
2023/03/04 09:06:58;;;;;;;70.32;31.70;;;0.40;99.90;;;;;;5031439;28;20026;-85
2023/03/04 09:09:24;;;;;;;74.43;32.83;;;0.40;99.90;;;;;;5048194;28;20021;-85
2023/03/04 09:11:49;;;;;;;85.55;34.80;;;0.30;99.90;;;;;;5051590;28;20029;-85
2023/03/04 09:14:15;;;;;;;72.85;32.42;;;0.30;99.90;;;;;;5033485;28;20473;-85
2023/03/04 09:16:41;;;;;;;68.68;30.02;;;0.30;99.90;;;;;;5034454;28;20021;-85
2023/03/04 09:19:06;;;;;;;81.28;35.42;;;0.40;99.90;;;;;;5033676;28;20021;-85
2023/03/04 09:21:32;;;;;;;75.57;33.35;;;0.40;99.90;;;;;;5034503;28;20449;-86
2023/03/04 09:23:58;;;;;;;77.72;33.92;;;0.40;99.90;;;;;;5050924;28;20539;-85
2023/03/04 09:26:26;;;;;;;78.38;32.33;;;0.40;99.90;;;;;;5052920;28;20711;-85
2023/03/04 09:28:53;;;;;;;76.05;31.48;;;0.30;99.90;;;;;;5036247;28;20029;-84
2023/03/04 09:31:20;;;;;;;81.13;32.40;;;0.40;99.90;;;;;;5039332;28;20727;-85
2023/03/04 09:33:46;;;;;;;74.72;32.17;;;0.30;99.90;;;;;;5054962;28;20023;-85
2023/03/04 09:36:42;;;;;;;85.22;32.35;;;0.30;99.90;;;;;;5038492;28;20029;-85
2023/03/04 09:39:11;;;;;;;69.20;32.40;;;0.40;99.90;;;;;;5055526;28;20025;-85
2023/03/04 09:41:40;;;;;;;68.10;29.80;;;0.40;99.90;;;;;;5056852;28;20029;-85
2023/03/04 09:44:22;;;;;;;74.13;31.63;;;0.50;99.90;;;;;;5049617;28;20103;-85
2023/03/04 09:46:49;;;;;;;70.82;31.52;;;0.60;99.90;;;;;;5055489;28;20032;-86
2023/03/04 09:49:16;;;;;;;77.57;32.28;;;0.60;99.90;;;;;;5055057;28;20111;-85
2023/03/04 09:52:01;;;;;;;76.30;33.70;;;0.60;99.90;;;;;;5038163;28;20480;-85
2023/03/04 09:54:41;;;;;;;76.07;33.15;;;0.50;99.90;;;;;;5071342;28;20035;-85
2023/03/04 09:57:29;;;;;;;72.00;30.25;;;0.40;99.90;;;;;;5051183;28;20025;-84
2023/03/04 10:00:01;;;;;;;72.70;31.38;;;0.40;99.90;;;;;;5054227;28;20025;-85
2023/03/04 10:02:58;;;;;;;70.13;28.40;;;0.50;99.90;;;;;;5054244;28;20029;-85
2023/03/04 10:05:26;;;;;;;68.22;29.83;;;0.50;99.90;;;;;;5034166;28;20116;-85
2023/03/04 10:07:58;;;;;;;66.13;30.00;;;0.60;99.90;;;;;;5039509;28;20492;-85
2023/03/04 10:10:32;;;;;;;66.63;30.17;;;0.60;99.90;;;;;;5054898;28;20358;-85
2023/03/04 10:13:00;;;;;;;68.63;28.92;;;0.60;99.90;;;;;;5054592;28;20056;-85
2023/03/04 10:15:37;;;;;;;68.07;29.80;;;0.80;99.90;;;;;;5054289;28;20124;-85
2023/03/04 10:18:31;;;;;;;91.82;39.50;;;1.00;99.90;;;;;;5053794;28;20041;-85
2023/03/04 10:21:01;;;;;;;72.82;29.60;;;1.10;99.90;;;;;;5037673;28;20032;-84
2023/03/04 10:23:30;;;;;;;67.65;26.80;;;1.20;99.90;;;;;;5037126;28;20025;-84
2023/03/04 10:25:57;;;;;;;64.68;27.90;;;1.10;99.90;;;;;;5054002;28;20025;-85
2023/03/04 10:28:29;;;;;;;60.33;28.10;;;1.10;99.90;;;;;;5055500;28;20021;-85
2023/03/04 10:31:05;;;;;;;62.05;26.63;;;1.20;99.90;;;;;;5037951;28;20089;-84
2023/03/04 10:33:36;;;;;;;65.45;27.38;;;1.20;99.90;;;;;;5054153;28;20033;-84
2023/03/04 10:36:05;;;;;;;61.42;27.38;;;1.20;99.90;;;;;;5047395;28;20597;-85
2023/03/04 10:38:38;;;;;;;65.05;26.10;;;1.30;99.90;;;;;;5036732;28;20036;-85
2023/03/04 10:41:30;;;;;;;81.93;34.65;;;1.30;99.90;;;;;;5054412;28;20479;-85
2023/03/04 10:44:03;;;;;;;55.72;26.15;;;1.30;99.90;;;;;;5046388;28;20033;-85
2023/03/04 10:46:30;;;;;;;67.63;25.98;;;1.30;99.90;;;;;;5053842;28;20492;-85
2023/03/04 10:48:56;;;;;;;58.75;27.25;;;1.40;99.90;;;;;;5055327;28;20469;-85
2023/03/04 10:51:27;;;;;;;74.50;26.83;;;1.40;99.90;;;;;;5054704;28;20111;-85
2023/03/04 10:54:18;;;;;;;54.97;23.45;;;1.50;99.90;;;;;;5053628;28;20181;-84
2023/03/04 10:56:54;;;;;;;48.50;22.90;;;1.50;99.90;;;;;;5052619;28;20075;-85
2023/03/04 10:59:31;;;;;;;49.17;21.42;;;1.40;99.90;;;;;;5037623;28;20286;-84
2023/03/04 11:02:12;;;;;;;52.65;21.80;;;1.50;99.90;;;;;;5045827;28;20025;-85
2023/03/04 11:04:38;;;;;;;58.60;23.88;;;1.70;99.90;;;;;;5036664;28;20377;-85
2023/03/04 11:07:10;;;;;;;56.60;21.80;;;1.70;99.90;;;;;;5037203;28;20021;-85
2023/03/04 11:09:39;;;;;;;66.80;26.50;;;1.60;99.90;;;;;;5036990;28;20480;-85
2023/03/04 11:12:11;;;;;;;52.40;22.38;;;1.50;99.90;;;;;;5037001;28;20119;-85
2023/03/04 11:14:48;;;;;;;60.78;24.42;;;1.60;99.90;;;;;;5054685;28;20035;-84
2023/03/04 11:17:38;;;;;;;53.00;22.45;;;1.70;99.90;;;;;;5033563;28;20380;-85
2023/03/04 11:20:32;;;;;;;58.42;22.58;;;1.60;99.90;;;;;;5036433;28;20057;-85
2023/03/04 11:23:05;;;;;;;57.20;26.17;;;1.70;99.90;;;;;;5061676;28;20037;-85
2023/03/04 11:25:34;;;;;;;69.10;27.27;;;1.90;99.90;;;;;;5036215;28;20017;-85
2023/03/04 11:28:18;;;;;;;69.07;27.33;;;2.00;99.90;;;;;;5036628;28;20029;-86
2023/03/04 11:30:57;;;;;;;57.22;24.52;;;2.00;99.90;;;;;;5052829;28;20083;-85
2023/03/04 11:33:41;;;;;;;66.90;23.83;;;2.00;99.90;;;;;;5036937;28;20032;-85
2023/03/04 11:36:16;;;;;;;47.53;19.40;;;1.90;99.90;;;;;;5063179;28;20110;-85
2023/03/04 11:38:47;;;;;;;48.58;18.98;;;2.00;99.90;;;;;;5053014;28;20056;-85
2023/03/04 11:41:29;;;;;;;54.97;19.23;;;2.00;99.90;;;;;;5036048;28;20549;-85
2023/03/04 11:43:55;;;;;;;50.47;19.70;;;2.10;99.90;;;;;;5036003;28;20122;-85
2023/03/04 11:46:57;;;;;;;55.92;19.40;;;2.10;99.90;;;;;;5052829;28;20032;-84
2023/03/04 11:49:55;;;;;;;46.35;17.67;;;2.40;99.90;;;;;;5031634;28;20029;-85
2023/03/04 11:52:59;;;;;;;49.30;21.35;;;2.30;99.90;;;;;;5081337;28;20033;-85
2023/03/04 11:55:44;;;;;;;50.17;19.15;;;2.00;99.90;;;;;;5052709;28;20108;-85
2023/03/04 11:58:13;;;;;;;46.05;18.40;;;2.10;99.90;;;;;;5050637;28;20039;-85
2023/03/04 12:01:02;;;;;;;52.67;18.83;;;2.30;99.90;;;;;;5085630;28;20425;-85
2023/03/04 12:03:39;;;;;;;60.83;20.20;;;2.30;99.90;;;;;;5052787;28;20028;-84
2023/03/04 12:06:21;;;;;;;48.15;18.80;;;2.30;99.90;;;;;;5053068;28;20388;-85
2023/03/04 12:08:55;;;;;;;54.17;20.40;;;2.20;99.90;;;;;;5035710;28;20044;-85
2023/03/04 12:11:39;;;;;;;57.33;19.73;;;2.40;99.90;;;;;;5052404;28;20063;-85
2023/03/04 12:14:42;;;;;;;44.15;17.83;;;2.40;99.90;;;;;;5054714;28;20031;-84
2023/03/04 12:17:08;;;;;;;51.75;22.08;;;2.60;99.90;;;;;;5047452;28;20554;-85
2023/03/04 12:23:43;;;;;;;51.50;20.02;;;2.80;99.90;;;;;;5048876;28;20523;-85
2023/03/04 12:26:09;;;;;;;49.00;20.80;;;2.40;99.90;;;;;;5035694;28;20036;-85
2023/03/04 12:28:39;;;;;;;71.22;27.63;;;2.30;99.90;;;;;;5035438;28;20080;-86
2023/03/04 12:31:17;;;;;;;52.78;20.30;;;2.30;99.90;;;;;;5035422;28;20060;-85
2023/03/04 12:34:04;;;;;;;56.08;18.00;;;2.30;99.90;;;;;;5052794;28;20376;-85
2023/03/04 12:36:35;;;;;;;49.47;16.88;;;2.50;99.90;;;;;;5053394;28;20064;-85
2023/03/04 12:39:35;;;;;;;44.13;17.67;;;2.50;99.90;;;;;;5052425;28;20028;-84
2023/03/04 12:42:09;;;;;;;55.05;18.83;;;2.30;99.90;;;;;;5034804;28;20048;-85
2023/03/04 12:45:03;;;;;;;58.50;20.95;;;2.30;99.90;;;;;;5035512;28;20488;-85
2023/03/04 12:48:21;;;;;;;46.92;19.02;;;2.30;99.90;;;;;;5055619;28;20036;-85
2023/03/04 12:51:18;;;;;;;60.63;18.23;;;2.50;99.90;;;;;;5070697;28;20047;-85
2023/03/04 12:54:05;;;;;;;52.13;17.85;;;2.50;99.90;;;;;;5029541;28;20045;-85
2023/03/04 12:56:47;;;;;;;42.47;17.17;;;2.50;99.90;;;;;;5051827;28;20102;-85
2023/03/04 12:59:17;;;;;;;42.40;17.40;;;2.40;99.90;;;;;;5048986;28;20032;-85